createdAt,value
2023-01-28T00:02:26.440Z,6.97
2023-01-28T00:04:53.626Z,6.75
2023-01-28T00:07:21.298Z,7.75
2023-01-28T00:09:48.349Z,8.00
2023-01-28T00:12:15.653Z,7.68
2023-01-28T00:14:42.688Z,8.15
2023-01-28T00:17:09.727Z,7.60
2023-01-28T00:19:36.791Z,8.15
2023-01-28T00:22:04.573Z,6.35
2023-01-28T00:24:33.239Z,8.95
2023-01-28T00:27:00.316Z,9.27
2023-01-28T00:29:28.784Z,8.60
2023-01-28T00:31:56.596Z,7.18
2023-01-28T00:34:23.640Z,7.45
2023-01-28T00:36:57.909Z,7.20
2023-01-28T00:39:27.090Z,7.47
2023-01-28T00:41:54.570Z,7.45
2023-01-28T00:44:21.728Z,6.72
2023-01-28T00:46:49.014Z,7.00
2023-01-28T00:49:16.069Z,7.03
2023-01-28T00:51:43.184Z,8.02
2023-01-28T00:54:13.503Z,7.15
2023-01-28T00:56:40.650Z,7.22
2023-01-28T00:59:07.695Z,8.32
2023-01-28T01:01:35.195Z,6.43
2023-01-28T01:04:05.082Z,6.63
2023-01-28T01:06:38.896Z,7.18
2023-01-28T01:09:11.057Z,6.40
2023-01-28T01:11:38.159Z,5.72
2023-01-28T01:14:07.071Z,6.57
2023-01-28T01:16:36.318Z,6.55
2023-01-28T01:19:04.043Z,8.38
2023-01-28T01:21:32.007Z,7.35
2023-01-28T01:23:59.236Z,7.38
2023-01-28T01:26:27.773Z,6.82
2023-01-28T01:28:55.363Z,6.57
2023-01-28T01:31:23.224Z,7.85
2023-01-28T01:33:52.775Z,7.90
2023-01-28T01:36:21.934Z,7.20
2023-01-28T01:38:53.911Z,7.65
2023-01-28T01:41:29.897Z,7.72
2023-01-28T01:44:03.707Z,8.38
2023-01-28T01:46:49.673Z,7.25
2023-01-28T01:49:26.946Z,7.25
2023-01-28T01:52:06.600Z,7.53
2023-01-28T01:54:35.709Z,7.35
2023-01-28T01:57:05.371Z,8.13
2023-01-28T01:59:34.445Z,6.35
2023-01-28T02:02:05.676Z,6.55
2023-01-28T02:04:40.112Z,6.75
2023-01-28T02:07:10.314Z,7.78
2023-01-28T02:09:38.657Z,6.40
2023-01-28T02:12:21.732Z,6.93
2023-01-28T02:14:57.784Z,6.15
2023-01-28T02:17:26.121Z,6.10
2023-01-28T02:20:07.053Z,6.82
2023-01-28T02:23:11.094Z,6.93
2023-01-28T02:25:54.520Z,7.55
2023-01-28T02:28:56.798Z,6.15
2023-01-28T02:31:46.544Z,7.28
2023-01-28T02:35:00.549Z,8.13
2023-01-28T02:37:42.238Z,6.72
2023-01-28T02:42:58.390Z,5.15
2023-01-28T02:45:52.145Z,5.55
2023-01-28T02:48:22.504Z,5.90
2023-01-28T02:51:15.946Z,5.75
2023-01-28T02:53:56.632Z,5.55
2023-01-28T02:56:42.471Z,5.93
2023-01-28T02:59:32.301Z,7.10
2023-01-28T03:02:20.811Z,5.30
2023-01-28T03:05:05.468Z,6.80
2023-01-28T03:07:36.952Z,6.35
2023-01-28T03:12:55.897Z,5.10
2023-01-28T03:15:50.791Z,6.05
2023-01-28T03:18:47.660Z,5.45
2023-01-28T03:21:48.555Z,4.95
2023-01-28T03:24:44.218Z,5.25
2023-01-28T03:27:42.832Z,7.20
2023-01-28T03:30:38.398Z,5.30
2023-01-28T03:33:25.213Z,6.00
2023-01-28T03:36:10.895Z,4.80
2023-01-28T03:38:43.795Z,6.22
2023-01-28T03:41:11.840Z,5.30
2023-01-28T03:43:38.990Z,5.18
2023-01-28T03:46:06.557Z,6.30
2023-01-28T03:48:33.981Z,6.68
2023-01-28T03:51:01.109Z,6.18
2023-01-28T03:53:28.501Z,7.18
2023-01-28T03:55:56.823Z,6.30
2023-01-28T03:58:27.324Z,5.97
2023-01-28T04:00:54.623Z,6.22
2023-01-28T04:03:22.364Z,6.60
2023-01-28T04:06:03.851Z,6.00
2023-01-28T04:08:30.973Z,6.47
2023-01-28T04:10:58.289Z,5.45
2023-01-28T04:13:25.354Z,6.60
2023-01-28T04:15:52.445Z,6.35
2023-01-28T04:18:19.934Z,5.97
2023-01-28T04:20:50.192Z,6.85
2023-01-28T04:23:17.290Z,5.75
2023-01-28T04:25:44.281Z,5.15
2023-01-28T04:28:11.413Z,6.13
2023-01-28T04:30:38.469Z,5.90
2023-01-28T04:33:05.564Z,5.70
2023-01-28T04:35:32.621Z,6.72
2023-01-28T04:37:59.683Z,5.90
2023-01-28T04:40:26.784Z,6.20
2023-01-28T04:42:55.818Z,7.10
2023-01-28T04:45:22.904Z,5.90
2023-01-28T04:47:50.618Z,5.82
2023-01-28T04:50:17.839Z,6.63
2023-01-28T04:52:44.929Z,7.07
2023-01-28T04:55:12.238Z,6.10
2023-01-28T04:57:39.484Z,7.07
2023-01-28T05:00:07.581Z,6.38
2023-01-28T05:02:34.733Z,7.05
2023-01-28T05:05:04.869Z,6.47
2023-01-28T05:07:31.916Z,7.05
2023-01-28T05:09:58.931Z,6.57
2023-01-28T05:12:26.364Z,6.30
2023-01-28T05:14:53.412Z,7.63
2023-01-28T05:17:20.484Z,7.03
2023-01-28T05:19:47.583Z,6.93
2023-01-28T05:22:14.720Z,6.40
2023-01-28T05:24:41.917Z,6.32
2023-01-28T05:27:09.178Z,7.13
2023-01-28T05:29:36.391Z,6.13
2023-01-28T05:32:03.755Z,6.78
2023-01-28T05:34:30.816Z,7.15
2023-01-28T05:36:57.868Z,7.15
2023-01-28T05:39:25.345Z,6.93
2023-01-28T05:41:52.393Z,8.52
2023-01-28T05:44:19.426Z,7.70
2023-01-28T05:46:46.843Z,8.13
2023-01-28T05:49:14.073Z,6.72
2023-01-28T05:51:41.192Z,7.25
2023-01-28T05:54:09.964Z,8.00
2023-01-28T05:56:37.197Z,8.50
2023-01-28T05:59:05.746Z,7.07
2023-01-28T06:01:33.200Z,7.50
2023-01-28T06:04:00.630Z,7.50
2023-01-28T06:06:27.873Z,7.82
2023-01-28T06:08:54.933Z,7.07
2023-01-28T06:11:22.375Z,7.78
2023-01-28T06:13:49.472Z,7.32
2023-01-28T06:16:16.682Z,7.53
2023-01-28T06:18:44.828Z,7.72
2023-01-28T06:21:11.981Z,7.03
2023-01-28T06:23:39.139Z,7.93
2023-01-28T06:26:06.205Z,8.05
2023-01-28T06:28:33.284Z,7.55
2023-01-28T06:31:00.401Z,7.03
2023-01-28T06:33:29.176Z,5.63
2023-01-28T06:35:56.325Z,7.47
2023-01-28T06:38:23.369Z,7.50
2023-01-28T06:40:56.275Z,7.32
2023-01-28T06:43:28.220Z,7.80
2023-01-28T06:45:55.795Z,8.63
2023-01-28T06:48:23.528Z,7.63
2023-01-28T06:50:50.863Z,6.95
2023-01-28T06:53:18.634Z,7.10
2023-01-28T06:55:46.081Z,7.13
2023-01-28T06:58:13.373Z,7.57
2023-01-28T07:00:40.468Z,7.70
2023-01-28T07:03:07.619Z,7.80
2023-01-28T07:05:34.740Z,8.05
2023-01-28T07:08:02.456Z,8.27
2023-01-28T07:10:30.330Z,7.53
2023-01-28T07:12:57.470Z,7.55
2023-01-28T07:15:24.658Z,7.93
2023-01-28T07:17:51.681Z,7.25
2023-01-28T07:20:19.082Z,7.00
2023-01-28T07:22:46.574Z,7.05
2023-01-28T07:25:15.633Z,7.53
2023-01-28T07:27:53.831Z,7.38
2023-01-28T07:30:22.206Z,8.27
2023-01-28T07:32:55.046Z,7.50
2023-01-28T07:35:23.162Z,8.63
2023-01-28T07:37:58.589Z,7.13
2023-01-28T07:40:27.959Z,7.60
2023-01-28T07:42:56.564Z,8.73
2023-01-28T07:45:26.899Z,7.70
2023-01-28T07:48:08.157Z,8.23
2023-01-28T07:50:37.610Z,7.15
2023-01-28T07:53:08.347Z,7.03
2023-01-28T07:55:36.128Z,8.48
2023-01-28T07:58:06.705Z,8.88
2023-01-28T08:00:36.329Z,8.55
2023-01-28T08:03:17.212Z,9.25
2023-01-28T08:05:51.758Z,10.05
2023-01-28T08:08:19.176Z,9.20
2023-01-28T08:10:46.367Z,8.70
2023-01-28T08:13:15.342Z,10.77
2023-01-28T08:15:42.648Z,9.40
2023-01-28T08:18:13.321Z,9.45
2023-01-28T08:20:41.577Z,8.77
2023-01-28T08:23:19.714Z,8.85
2023-01-28T08:25:47.933Z,9.15
2023-01-28T08:28:17.144Z,9.63
2023-01-28T08:30:44.770Z,8.73
2023-01-28T08:33:14.625Z,8.60
2023-01-28T08:35:42.031Z,7.85
2023-01-28T08:38:11.616Z,9.23
2023-01-28T08:40:38.811Z,9.43
2023-01-28T08:43:05.856Z,8.85
2023-01-28T08:45:33.274Z,8.82
2023-01-28T08:48:04.614Z,9.55
2023-01-28T08:50:37.355Z,8.73
2023-01-28T08:53:17.703Z,8.05
2023-01-28T08:55:47.499Z,10.05
2023-01-28T08:58:17.783Z,8.73
2023-01-28T09:00:45.863Z,8.70
2023-01-28T09:03:13.017Z,7.97
2023-01-28T09:05:40.377Z,9.07
2023-01-28T09:08:14.262Z,7.85
2023-01-28T09:10:42.386Z,9.55
2023-01-28T09:13:15.888Z,8.30
2023-01-28T09:15:43.744Z,8.70
2023-01-28T09:18:10.916Z,9.00
2023-01-28T09:20:38.180Z,7.78
2023-01-28T09:23:06.217Z,7.95
2023-01-28T09:25:34.190Z,9.43
2023-01-28T09:28:01.268Z,9.85
2023-01-28T09:30:29.583Z,9.20
2023-01-28T09:33:00.652Z,8.73
2023-01-28T09:35:27.755Z,8.23
2023-01-28T09:37:59.070Z,8.80
2023-01-28T09:40:42.655Z,7.47
2023-01-28T09:43:41.093Z,8.82
2023-01-28T09:46:14.345Z,8.90
2023-01-28T09:48:49.672Z,9.23
2023-01-28T09:51:42.760Z,7.75
2023-01-28T09:55:08.296Z,8.05
2023-01-28T09:58:00.208Z,8.63
2023-01-28T10:03:41.302Z,7.55
2023-01-28T10:06:36.904Z,8.18
2023-01-28T10:09:44.314Z,8.48
2023-01-28T10:12:31.684Z,9.23
2023-01-28T10:15:17.887Z,9.82
2023-01-28T10:17:48.682Z,11.18
2023-01-28T10:20:38.035Z,10.48
2023-01-28T10:23:26.521Z,9.48
2023-01-28T10:25:57.967Z,8.95
2023-01-28T10:28:29.251Z,9.90
2023-01-28T10:30:56.561Z,9.27
2023-01-28T10:33:41.182Z,10.35
2023-01-28T10:36:09.817Z,10.80
2023-01-28T10:38:36.918Z,9.82
2023-01-28T10:41:08.628Z,9.10
2023-01-28T10:43:42.091Z,9.77
2023-01-28T10:46:24.212Z,7.70
2023-01-28T10:49:07.094Z,9.98
2023-01-28T10:51:40.505Z,8.23
2023-01-28T10:54:29.184Z,8.13
2023-01-28T10:57:06.051Z,8.65
2023-01-28T10:59:36.965Z,8.25
2023-01-28T11:02:32.771Z,8.60
2023-01-28T11:05:25.634Z,7.97
2023-01-28T11:08:17.641Z,7.03
2023-01-28T11:10:46.121Z,9.02
2023-01-28T11:13:26.899Z,7.10
2023-01-28T11:16:06.373Z,7.83
2023-01-28T11:18:47.541Z,6.88
2023-01-28T11:21:25.553Z,7.45
2023-01-28T11:24:05.126Z,9.63
2023-01-28T11:26:37.695Z,7.07
2023-01-28T11:29:06.206Z,8.35
2023-01-28T11:31:43.522Z,8.20
2023-01-28T11:34:18.513Z,7.35
2023-01-28T11:37:13.814Z,9.90
2023-01-28T11:39:40.860Z,8.70
2023-01-28T11:42:21.703Z,8.35
2023-01-28T11:44:49.611Z,9.23
2023-01-28T11:47:42.704Z,8.30
2023-01-28T11:50:35.947Z,8.60
2023-01-28T11:53:56.352Z,8.13
2023-01-28T11:56:31.989Z,8.15
2023-01-28T11:59:05.191Z,9.60
2023-01-28T12:01:45.564Z,9.48
2023-01-28T12:04:34.007Z,9.75
2023-01-28T12:07:22.905Z,10.52
2023-01-28T12:10:04.763Z,8.82
2023-01-28T12:12:43.937Z,9.73
2023-01-28T12:15:57.548Z,8.70
2023-01-28T12:18:41.723Z,8.38
2023-01-28T12:21:35.132Z,9.50
2023-01-28T12:24:45.928Z,8.55
2023-01-28T12:27:16.076Z,9.15
2023-01-28T12:30:32.769Z,9.77
2023-01-28T12:33:38.359Z,9.10
2023-01-28T12:36:20.500Z,9.07
2023-01-28T12:39:15.564Z,9.20
2023-01-28T12:41:49.988Z,9.48
2023-01-28T12:44:31.301Z,8.52
2023-01-28T12:47:05.695Z,6.90
2023-01-28T12:49:51.150Z,7.55
2023-01-28T12:52:39.898Z,7.32
2023-01-28T12:55:32.885Z,7.80
2023-01-28T12:58:00.409Z,7.80
2023-01-28T13:00:39.717Z,6.85
2023-01-28T13:03:35.842Z,7.07
2023-01-28T13:06:34.954Z,5.97
2023-01-28T13:09:14.822Z,6.05
2023-01-28T13:11:42.610Z,5.72
2023-01-28T13:14:12.422Z,6.38
2023-01-28T13:16:39.663Z,5.30
2023-01-28T13:19:37.827Z,5.07
2023-01-28T13:22:27.403Z,6.70
2023-01-28T13:24:54.908Z,5.40
2023-01-28T13:27:29.335Z,5.43
2023-01-28T13:30:26.880Z,5.55
2023-01-28T13:33:07.031Z,5.63
2023-01-28T13:35:40.538Z,6.07
2023-01-28T13:38:18.205Z,6.57
2023-01-28T13:40:56.693Z,6.20
2023-01-28T13:43:47.065Z,7.15
2023-01-28T13:46:29.378Z,5.35
2023-01-28T13:48:59.275Z,6.80
2023-01-28T13:51:35.988Z,6.43
2023-01-28T13:54:15.439Z,5.68
2023-01-28T13:56:55.495Z,6.55
2023-01-28T14:00:06.039Z,6.32
2023-01-28T14:02:50.817Z,7.05
2023-01-28T14:05:54.436Z,5.75
2023-01-28T14:09:04.676Z,6.80
2023-01-28T14:11:58.225Z,7.10
2023-01-28T14:14:31.081Z,7.13
2023-01-28T14:17:18.249Z,8.13
2023-01-28T14:19:46.155Z,8.05
2023-01-28T14:22:20.807Z,8.25
2023-01-28T14:24:49.088Z,9.48
2023-01-28T14:27:47.028Z,7.35
2023-01-28T14:30:45.651Z,7.78
2023-01-28T14:33:13.308Z,8.13
2023-01-28T14:35:46.408Z,7.82
2023-01-28T14:38:19.755Z,10.20
2023-01-28T14:40:53.379Z,10.50
2023-01-28T14:43:25.855Z,8.82
2023-01-28T14:46:23.647Z,8.13
2023-01-28T14:49:18.448Z,12.45
2023-01-28T14:52:26.195Z,13.50
2023-01-28T14:55:09.802Z,23.50
2023-01-28T14:57:56.612Z,15.95
2023-01-28T15:00:32.412Z,15.32
2023-01-28T15:03:00.137Z,14.10
2023-01-28T15:05:29.679Z,47.47
2023-01-28T15:07:57.077Z,42.33
2023-01-28T15:10:52.781Z,30.92
2023-01-28T15:13:34.171Z,24.73
2023-01-28T15:16:01.888Z,30.25
2023-01-28T15:18:32.393Z,29.67
2023-01-28T15:21:00.601Z,38.40
2023-01-28T15:23:33.718Z,32.58
2023-01-28T15:26:10.754Z,40.88
2023-01-28T15:28:39.966Z,37.78
2023-01-28T15:31:07.426Z,38.85
2023-01-28T15:33:34.537Z,33.40
2023-01-28T15:36:01.926Z,26.25
2023-01-28T15:38:29.584Z,26.55
2023-01-28T15:41:01.277Z,19.05
2023-01-28T15:43:38.388Z,17.63
2023-01-28T15:46:12.450Z,12.60
2023-01-28T15:48:44.429Z,11.48
2023-01-28T15:51:30.867Z,9.43
2023-01-28T15:54:07.987Z,8.02
2023-01-28T15:56:36.431Z,7.78
2023-01-28T15:59:27.180Z,9.70
2023-01-28T16:02:18.138Z,9.65
2023-01-28T16:05:00.776Z,10.27
2023-01-28T16:07:31.208Z,8.25
2023-01-28T16:10:01.294Z,10.65
2023-01-28T16:12:28.540Z,9.65
2023-01-28T16:15:02.124Z,8.75
2023-01-28T16:17:38.576Z,8.32
2023-01-28T16:20:14.952Z,7.15
2023-01-28T16:22:43.756Z,8.43
2023-01-28T16:25:27.238Z,7.85
2023-01-28T16:27:54.945Z,10.10
2023-01-28T16:30:22.154Z,9.90
2023-01-28T16:32:49.512Z,8.82
2023-01-28T16:35:25.313Z,11.07
2023-01-28T16:37:52.677Z,11.88
2023-01-28T16:40:23.372Z,8.70
2023-01-28T16:42:50.865Z,8.50
2023-01-28T16:45:24.214Z,8.52
2023-01-28T16:47:52.867Z,10.13
2023-01-28T16:50:22.006Z,9.88
2023-01-28T16:52:51.859Z,10.77
2023-01-28T16:55:21.694Z,8.48
2023-01-28T16:57:53.154Z,9.20
2023-01-28T17:00:27.042Z,9.93
2023-01-28T17:02:55.016Z,10.70
2023-01-28T17:05:23.437Z,10.63
2023-01-28T17:07:51.006Z,10.52
2023-01-28T17:10:20.578Z,10.50
2023-01-28T17:12:50.387Z,10.88
2023-01-28T17:15:18.617Z,9.93
2023-01-28T17:17:49.582Z,9.57
2023-01-28T17:20:17.575Z,9.32
2023-01-28T17:22:44.977Z,9.15
2023-01-28T17:25:12.085Z,9.35
2023-01-28T17:27:39.430Z,8.70
2023-01-28T17:30:07.605Z,10.23
2023-01-28T17:32:34.678Z,8.32
2023-01-28T17:35:01.684Z,8.68
2023-01-28T17:37:28.688Z,10.25
2023-01-28T17:39:55.704Z,9.98
2023-01-28T17:42:22.717Z,9.15
2023-01-28T17:44:49.731Z,9.07
2023-01-28T17:47:17.152Z,9.10
2023-01-28T17:49:44.313Z,8.13
2023-01-28T17:52:11.346Z,8.30
2023-01-28T17:54:38.394Z,7.95
2023-01-28T17:57:05.754Z,8.30
2023-01-28T17:59:32.737Z,8.55
2023-01-28T18:01:59.849Z,8.68
2023-01-28T18:04:26.948Z,9.98
2023-01-28T18:06:54.022Z,9.20
2023-01-28T18:09:21.315Z,7.97
2023-01-28T18:11:48.464Z,8.95
2023-01-28T18:14:15.617Z,10.25
2023-01-28T18:16:44.257Z,9.82
2023-01-28T18:19:11.346Z,10.90
2023-01-28T18:21:57.014Z,10.38
2023-01-28T18:24:27.363Z,12.98
2023-01-28T18:27:00.249Z,10.57
2023-01-28T18:29:29.665Z,10.35
2023-01-28T18:31:58.787Z,13.05
2023-01-28T18:34:28.965Z,9.88
2023-01-28T18:36:57.340Z,9.15
2023-01-28T18:39:27.689Z,10.27
2023-01-28T18:41:56.084Z,10.25
2023-01-28T18:44:30.083Z,8.38
2023-01-28T18:46:57.395Z,9.13
2023-01-28T18:49:24.793Z,9.98
2023-01-28T18:51:51.876Z,10.40
2023-01-28T18:54:20.432Z,8.25
2023-01-28T18:56:49.296Z,8.73
2023-01-28T18:59:16.659Z,8.57
2023-01-28T19:01:44.016Z,8.38
2023-01-28T19:04:11.185Z,8.02
2023-01-28T19:06:38.357Z,8.20
2023-01-28T19:09:07.211Z,8.50
2023-01-28T19:11:35.562Z,9.93
2023-01-28T19:14:02.782Z,8.68
2023-01-28T19:16:30.559Z,9.75
2023-01-28T19:19:01.297Z,10.45
2023-01-28T19:21:30.782Z,10.40
2023-01-28T19:24:01.805Z,8.68
2023-01-28T19:26:31.062Z,9.18
2023-01-28T19:28:59.124Z,9.65
2023-01-28T19:31:27.350Z,10.30
2023-01-28T19:33:57.676Z,11.02
2023-01-28T19:36:27.077Z,9.85
2023-01-28T19:38:59.568Z,10.63
2023-01-28T19:41:28.546Z,10.18
2023-01-28T19:43:58.109Z,14.38
2023-01-28T19:46:26.150Z,17.08
2023-01-28T19:48:54.118Z,17.70
2023-01-28T19:51:21.970Z,21.10
2023-01-28T19:53:52.325Z,18.98
2023-01-28T19:56:21.931Z,18.77
2023-01-28T19:58:49.463Z,15.30
2023-01-28T20:01:23.906Z,15.23
2023-01-28T20:03:58.591Z,14.30
2023-01-28T20:06:28.389Z,14.88
2023-01-28T20:09:00.565Z,14.68
2023-01-28T20:11:28.081Z,13.80
2023-01-28T20:13:55.954Z,12.88
2023-01-28T20:16:32.855Z,14.80
2023-01-28T20:19:05.546Z,12.32
2023-01-28T20:21:35.065Z,13.45
2023-01-28T20:24:03.723Z,12.50
2023-01-28T20:26:35.969Z,13.63
2023-01-28T20:29:13.741Z,12.82
2023-01-28T20:31:42.420Z,12.13
2023-01-28T20:34:18.959Z,11.15
2023-01-28T20:36:46.837Z,10.70
2023-01-28T20:39:14.591Z,10.85
2023-01-28T20:41:41.864Z,11.45
2023-01-28T20:44:08.950Z,11.27
2023-01-28T20:46:37.232Z,14.63
2023-01-28T20:49:06.778Z,15.40
2023-01-28T20:51:35.859Z,13.65
2023-01-28T20:54:03.588Z,13.50
2023-01-28T20:56:31.329Z,14.48
2023-01-28T20:59:05.290Z,14.00
2023-01-28T21:01:35.353Z,13.90
2023-01-28T21:04:06.275Z,13.93
2023-01-28T21:06:34.101Z,12.73
2023-01-28T21:09:01.914Z,12.85
2023-01-28T21:11:29.665Z,14.98
2023-01-28T21:13:57.247Z,12.35
2023-01-28T21:16:25.399Z,15.38
2023-01-28T21:18:52.500Z,13.32
2023-01-28T21:21:28.952Z,12.88
2023-01-28T21:23:59.767Z,11.65
2023-01-28T21:26:27.470Z,12.52
2023-01-28T21:28:56.208Z,11.00
2023-01-28T21:31:26.487Z,12.90
2023-01-28T21:33:57.687Z,12.50
2023-01-28T21:36:26.250Z,13.43
2023-01-28T21:38:57.167Z,11.63
2023-01-28T21:41:24.645Z,16.63
2023-01-28T21:43:54.036Z,25.27
2023-01-28T21:46:23.293Z,20.48
2023-01-28T21:49:05.072Z,17.63
2023-01-28T21:54:20.184Z,11.82
2023-01-28T21:56:50.144Z,12.10
2023-01-28T21:59:27.996Z,15.88
2023-01-28T22:02:13.897Z,12.88
2023-01-28T22:04:44.360Z,11.30
2023-01-28T22:07:17.358Z,12.02
2023-01-28T22:09:46.014Z,12.32
2023-01-28T22:12:15.257Z,11.65
2023-01-28T22:14:43.940Z,14.02
2023-01-28T22:17:13.364Z,11.60
2023-01-28T22:19:40.711Z,12.80
2023-01-28T22:22:07.896Z,12.00
2023-01-28T22:24:35.074Z,12.48
2023-01-28T22:27:02.222Z,12.43
2023-01-28T22:29:29.321Z,14.02
2023-01-28T22:31:56.534Z,11.95
2023-01-28T22:34:23.885Z,11.65
2023-01-28T22:36:51.716Z,11.55
2023-01-28T22:39:19.450Z,10.95
2023-01-28T22:41:47.707Z,12.75
2023-01-28T22:44:15.267Z,13.80
2023-01-28T22:46:42.456Z,11.88
2023-01-28T22:49:12.111Z,12.40
2023-01-28T22:51:39.234Z,12.77
2023-01-28T22:54:06.372Z,14.23
2023-01-28T22:56:33.532Z,13.43
2023-01-28T22:59:03.056Z,11.75
2023-01-28T23:01:30.447Z,12.35
2023-01-28T23:03:57.906Z,11.85
2023-01-28T23:06:27.936Z,11.57
2023-01-28T23:08:56.498Z,13.35
2023-01-28T23:11:28.598Z,11.00
2023-01-28T23:14:22.546Z,12.88
2023-01-28T23:17:09.391Z,12.88
2023-01-28T23:19:55.351Z,12.18
2023-01-28T23:22:51.385Z,12.60
2023-01-28T23:25:19.838Z,11.30
2023-01-28T23:27:47.017Z,12.38
2023-01-28T23:30:15.832Z,11.18
2023-01-28T23:32:49.745Z,11.95
2023-01-28T23:35:19.045Z,12.68
2023-01-28T23:37:47.577Z,13.35
2023-01-28T23:40:15.830Z,13.27
2023-01-28T23:42:48.355Z,13.27
2023-01-28T23:45:15.454Z,11.38
2023-01-28T23:47:42.513Z,11.18
2023-01-28T23:50:10.596Z,12.48
2023-01-28T23:52:37.784Z,12.30
2023-01-28T23:55:05.660Z,14.20
2023-01-28T23:57:33.540Z,11.70
